createdAt,value
2018-08-17T00:00:31.703Z,25.40
2018-08-17T00:03:06.328Z,25.30
2018-08-17T00:05:40.783Z,25.30
2018-08-17T00:08:16.558Z,25.20
2018-08-17T00:10:52.676Z,25.20
2018-08-17T00:13:28.595Z,25.20
2018-08-17T00:16:02.880Z,25.10
2018-08-17T00:18:38.654Z,25.00
2018-08-17T00:21:15.858Z,25.00
2018-08-17T00:23:50.534Z,25.00
2018-08-17T00:26:26.342Z,24.90
2018-08-17T00:29:02.387Z,24.90
2018-08-17T00:31:46.432Z,24.80
2018-08-17T00:34:24.846Z,24.80
2018-08-17T00:36:59.226Z,24.80
2018-08-17T00:39:33.619Z,24.70
2018-08-17T00:42:07.975Z,24.70
2018-08-17T00:44:42.744Z,24.70
2018-08-17T00:47:17.175Z,24.70
2018-08-17T00:49:53.548Z,24.60
2018-08-17T00:52:27.999Z,24.60
2018-08-17T00:55:02.572Z,24.60
2018-08-17T00:57:37.058Z,24.50
2018-08-17T01:00:11.902Z,24.40
2018-08-17T01:02:46.267Z,24.40
2018-08-17T01:05:20.780Z,24.40
2018-08-17T01:07:56.824Z,24.40
2018-08-17T01:10:31.427Z,24.40
2018-08-17T01:13:18.262Z,24.30
2018-08-17T01:15:53.790Z,24.30
2018-08-17T01:18:29.767Z,24.30
2018-08-17T01:21:12.455Z,24.20
2018-08-17T01:23:48.036Z,24.20
2018-08-17T01:26:22.459Z,24.10
2018-08-17T01:28:57.977Z,24.00
2018-08-17T01:31:32.375Z,24.00
2018-08-17T01:34:08.062Z,24.00
2018-08-17T01:36:42.508Z,24.00
2018-08-17T01:39:17.070Z,24.00
2018-08-17T01:41:51.394Z,24.00
2018-08-17T01:44:25.838Z,24.00
2018-08-17T01:47:00.351Z,23.90
2018-08-17T01:49:36.233Z,23.90
2018-08-17T01:52:10.620Z,23.90
2018-08-17T01:54:45.007Z,23.80
2018-08-17T01:57:19.510Z,23.90
2018-08-17T01:59:54.232Z,23.90
2018-08-17T02:02:30.615Z,23.80
2018-08-17T02:05:05.130Z,23.80
2018-08-17T02:07:44.067Z,23.70
2018-08-17T02:10:18.620Z,23.60
2018-08-17T02:12:55.255Z,23.60
2018-08-17T02:15:31.223Z,23.50
2018-08-17T02:18:05.548Z,23.50
2018-08-17T02:20:55.703Z,23.50
2018-08-17T02:23:31.342Z,23.50
2018-08-17T02:26:07.779Z,23.40
2018-08-17T02:28:43.586Z,23.40
2018-08-17T02:31:18.177Z,23.40
2018-08-17T02:33:54.075Z,23.40
2018-08-17T02:36:28.602Z,23.40
2018-08-17T02:39:03.131Z,23.40
2018-08-17T02:41:37.644Z,23.40
2018-08-17T02:44:12.084Z,23.40
2018-08-17T02:46:46.791Z,23.30
2018-08-17T02:49:22.951Z,23.30
2018-08-17T02:51:57.391Z,23.30
2018-08-17T02:54:31.978Z,23.30
2018-08-17T02:57:06.355Z,23.20
2018-08-17T02:59:40.908Z,23.20
2018-08-17T03:02:16.886Z,23.10
2018-08-17T03:04:51.373Z,23.10
2018-08-17T03:10:19.030Z,23.00
2018-08-17T03:12:55.006Z,23.00
2018-08-17T03:15:30.833Z,23.00
2018-08-17T03:18:05.440Z,22.90
2018-08-17T03:20:41.584Z,22.90
2018-08-17T03:23:17.350Z,22.90
2018-08-17T03:25:53.442Z,22.90
2018-08-17T03:28:29.046Z,22.90
2018-08-17T03:31:03.482Z,22.90
2018-08-17T03:33:39.593Z,22.80
2018-08-17T03:36:14.003Z,22.80
2018-08-17T03:38:49.371Z,22.80
2018-08-17T03:41:23.787Z,22.80
2018-08-17T03:43:58.305Z,22.80
2018-08-17T03:46:32.756Z,22.70
2018-08-17T03:49:08.766Z,22.70
2018-08-17T03:51:44.407Z,22.70
2018-08-17T03:54:19.107Z,22.70
2018-08-17T03:56:53.488Z,22.70
2018-08-17T03:59:27.943Z,22.70
2018-08-17T04:02:03.814Z,22.70
2018-08-17T04:04:38.560Z,22.60
2018-08-17T04:07:13.123Z,22.60
2018-08-17T04:09:48.727Z,22.60
2018-08-17T04:12:24.603Z,22.60
2018-08-17T04:15:08.079Z,22.60
2018-08-17T04:17:44.219Z,22.50
2018-08-17T04:20:18.608Z,22.40
2018-08-17T04:22:55.450Z,22.40
2018-08-17T04:25:32.355Z,22.40
2018-08-17T04:28:08.509Z,22.40
2018-08-17T04:30:42.992Z,22.30
2018-08-17T04:33:18.963Z,22.30
2018-08-17T04:35:53.255Z,22.30
2018-08-17T04:41:07.422Z,22.30
2018-08-17T04:43:41.952Z,22.30
2018-08-17T04:46:16.451Z,22.30
2018-08-17T04:48:52.623Z,22.30
2018-08-17T04:51:28.767Z,22.30
2018-08-17T04:54:03.615Z,22.30
2018-08-17T04:56:37.912Z,22.30
2018-08-17T04:59:12.742Z,22.30
2018-08-17T05:01:48.869Z,22.40
2018-08-17T05:04:23.474Z,22.40
2018-08-17T05:06:57.851Z,22.50
2018-08-17T05:09:33.379Z,22.50
2018-08-17T05:12:18.056Z,22.50
2018-08-17T05:14:53.706Z,22.60
2018-08-17T05:17:29.827Z,22.60
2018-08-17T05:20:04.815Z,22.70
2018-08-17T05:22:39.257Z,22.70
2018-08-17T05:25:13.863Z,22.70
2018-08-17T05:27:49.724Z,22.70
2018-08-17T05:30:24.190Z,22.80
2018-08-17T05:33:00.287Z,22.80
2018-08-17T05:35:34.885Z,22.90
2018-08-17T05:38:09.311Z,23.00
2018-08-17T05:40:43.871Z,23.00
2018-08-17T05:43:18.228Z,23.10
2018-08-17T05:45:52.615Z,23.20
2018-08-17T05:48:28.767Z,23.30
2018-08-17T05:51:04.511Z,23.40
2018-08-17T05:53:39.006Z,23.50
2018-08-17T05:56:13.357Z,23.50
2018-08-17T05:58:50.177Z,23.50
2018-08-17T06:01:26.085Z,23.60
2018-08-17T06:04:00.512Z,23.70
2018-08-17T06:06:34.797Z,23.70
2018-08-17T06:09:21.447Z,23.80
2018-08-17T06:14:37.543Z,24.00
2018-08-17T06:17:13.344Z,24.40
2018-08-17T06:19:47.758Z,24.50
2018-08-17T06:22:22.258Z,24.70
2018-08-17T06:24:56.540Z,24.90
2018-08-17T06:27:32.878Z,25.10
2018-08-17T06:30:09.431Z,25.20
2018-08-17T06:32:45.419Z,25.30
2018-08-17T06:35:19.709Z,25.60
2018-08-17T06:37:56.087Z,25.70
2018-08-17T06:40:30.609Z,25.70
2018-08-17T06:43:04.967Z,25.90
2018-08-17T06:45:39.280Z,26.10
2018-08-17T06:50:51.409Z,26.30
2018-08-17T06:53:25.991Z,26.60
2018-08-17T06:56:00.328Z,26.70
2018-08-17T06:58:34.692Z,26.80
2018-08-17T07:11:29.260Z,27.10
2018-08-17T07:21:49.851Z,27.90
2018-08-17T07:24:24.372Z,28.50
2018-08-17T07:27:00.087Z,28.80
2018-08-17T07:55:27.990Z,29.00
2018-08-17T07:58:02.215Z,30.30
2018-08-17T08:00:38.623Z,30.60
2018-08-17T08:05:47.690Z,30.30
2018-08-17T08:08:23.580Z,30.20
2018-08-17T08:10:58.094Z,30.40
2018-08-17T08:13:33.972Z,30.60
2018-08-17T08:16:09.768Z,30.60
2018-08-17T08:18:47.728Z,30.90
2018-08-17T08:21:22.237Z,31.20
2018-08-17T11:41:12.814Z,31.30
2018-08-17T11:43:47.227Z,34.20
2018-08-17T11:46:21.872Z,34.20
2018-08-17T11:49:02.337Z,34.20
2018-08-17T12:02:07.019Z,34.30
2018-08-17T12:04:43.016Z,33.90
2018-08-17T12:07:26.608Z,33.90
2018-08-17T12:10:02.747Z,34.00
2018-08-17T12:12:45.867Z,33.90
2018-08-17T12:15:22.039Z,33.40
2018-08-17T12:17:56.455Z,33.20
2018-08-17T12:20:30.967Z,32.80
2018-08-17T12:23:05.565Z,32.80
2018-08-17T12:26:00.232Z,33.00
2018-08-17T12:28:36.260Z,33.30
2018-08-17T12:31:10.823Z,33.50
2018-08-17T12:33:46.607Z,33.30
2018-08-17T12:36:21.172Z,32.80
2018-08-17T12:38:55.704Z,32.60
2018-08-17T12:41:32.005Z,33.10
2018-08-17T12:44:06.462Z,33.30
2018-08-17T12:46:41.312Z,33.20
2018-08-17T12:49:17.589Z,33.40
2018-08-17T12:51:52.034Z,33.60
2018-08-17T12:54:31.486Z,33.60
2018-08-17T12:57:06.661Z,33.60
2018-08-17T12:59:40.972Z,33.60
2018-08-17T13:02:16.643Z,33.70
2018-08-17T13:04:51.084Z,33.70
2018-08-17T13:07:28.259Z,33.80
2018-08-17T13:10:02.750Z,33.80
2018-08-17T13:12:47.802Z,33.40
2018-08-17T13:15:24.135Z,33.30
2018-08-17T13:18:02.678Z,33.50
2018-08-17T13:20:37.692Z,33.20
2018-08-17T13:23:12.706Z,33.20
2018-08-17T13:25:48.235Z,33.60
2018-08-17T13:28:24.194Z,33.50
2018-08-17T13:33:34.548Z,33.20
2018-08-17T13:36:09.461Z,33.40
2018-08-17T13:38:43.821Z,33.80
2018-08-17T13:41:18.362Z,34.20
2018-08-17T13:43:52.828Z,34.50
2018-08-17T13:46:27.336Z,34.90
2018-08-17T13:49:08.029Z,35.10
2018-08-17T13:51:42.439Z,34.80
2018-08-17T13:54:17.879Z,34.50
2018-08-17T13:56:52.246Z,34.50
2018-08-17T13:59:26.567Z,34.80
2018-08-17T14:02:02.196Z,34.80
2018-08-17T14:04:36.485Z,34.30
2018-08-17T14:07:10.991Z,34.00
2018-08-17T14:09:46.641Z,33.70
2018-08-17T14:12:22.683Z,34.10
2018-08-17T14:17:45.055Z,34.50
2018-08-17T14:20:19.498Z,34.60
2018-08-17T14:22:53.878Z,34.80
2018-08-17T14:25:30.283Z,34.80
2018-08-17T14:28:05.879Z,34.90
2018-08-17T14:30:40.319Z,35.00
2018-08-17T14:33:15.903Z,35.00
2018-08-17T14:35:50.388Z,35.30
2018-08-17T14:38:32.106Z,35.30
2018-08-17T14:41:06.657Z,35.50
2018-08-17T14:43:41.230Z,35.60
2018-08-17T14:46:15.697Z,35.80
2018-08-17T14:48:51.628Z,35.80
2018-08-17T14:51:27.463Z,35.90
2018-08-17T14:54:03.179Z,36.00
2018-08-17T14:56:37.680Z,36.10
2018-08-17T14:59:12.119Z,36.00
2018-08-17T15:01:49.665Z,36.00
2018-08-17T15:04:24.150Z,35.90
2018-08-17T15:06:58.702Z,36.00
2018-08-17T15:09:34.655Z,35.70
2018-08-17T15:12:10.819Z,35.50
2018-08-17T15:14:46.690Z,35.60
2018-08-17T15:17:22.743Z,35.80
2018-08-17T15:19:57.226Z,36.20
2018-08-17T15:22:32.199Z,36.40
2018-08-17T15:25:07.583Z,36.40
2018-08-17T15:27:43.512Z,36.50
2018-08-17T15:30:18.396Z,36.50
2018-08-17T15:32:54.530Z,36.60
2018-08-17T15:35:28.960Z,36.40
2018-08-17T15:38:03.575Z,36.40
2018-08-17T15:40:37.914Z,36.20
2018-08-17T15:43:18.424Z,35.90
2018-08-17T15:45:52.789Z,35.70
2018-08-17T15:48:28.709Z,35.90
2018-08-17T15:51:04.625Z,35.90
2018-08-17T15:53:41.915Z,35.90
2018-08-17T15:56:16.298Z,35.90
2018-08-17T15:58:50.854Z,36.00
2018-08-17T16:01:26.844Z,35.90
2018-08-17T16:04:02.729Z,35.70
2018-08-17T16:06:37.259Z,35.70
2018-08-17T16:09:13.935Z,35.70
2018-08-17T16:11:48.563Z,35.60
2018-08-17T16:14:24.591Z,35.60
2018-08-17T16:17:00.436Z,35.70
2018-08-17T16:19:34.912Z,35.40
2018-08-17T16:22:09.303Z,35.30
2018-08-17T16:24:43.815Z,35.40
2018-08-17T16:27:21.831Z,35.60
2018-08-17T16:29:56.113Z,35.60
2018-08-17T16:32:33.097Z,35.50
2018-08-17T16:35:07.477Z,35.50
2018-08-17T16:37:43.259Z,35.50
2018-08-17T16:40:18.092Z,35.40
2018-08-17T16:42:53.128Z,35.30
2018-08-17T16:45:29.137Z,35.20
2018-08-17T16:48:03.614Z,34.80
2018-08-17T16:50:39.527Z,34.70
2018-08-17T16:53:18.930Z,34.70
2018-08-17T16:55:53.800Z,34.70
2018-08-17T16:58:29.187Z,34.60
2018-08-17T17:01:05.025Z,34.50
2018-08-17T17:03:39.894Z,34.50
2018-08-17T17:06:14.461Z,34.40
2018-08-17T17:08:50.168Z,34.40
2018-08-17T17:11:25.040Z,34.20
2018-08-17T17:15:30.360Z,34.20
2018-08-17T17:20:46.673Z,33.60
2018-08-17T17:23:21.162Z,33.40
2018-08-17T17:25:57.323Z,33.50
2018-08-17T17:28:33.108Z,33.50
2018-08-17T17:31:07.659Z,33.60
2018-08-17T17:33:55.474Z,33.50
2018-08-17T17:36:29.832Z,33.50
2018-08-17T17:39:07.422Z,33.40
2018-08-17T17:41:42.163Z,33.20
2018-08-17T17:44:18.075Z,33.10
2018-08-17T17:46:54.340Z,33.00
2018-08-17T17:49:30.159Z,32.90
2018-08-17T17:52:04.606Z,32.90
2018-08-17T17:54:40.944Z,32.90
2018-08-17T17:57:15.392Z,32.80
2018-08-17T17:59:55.075Z,32.70
2018-08-17T18:02:30.602Z,32.60
2018-08-17T18:05:05.433Z,32.50
2018-08-17T18:07:50.096Z,32.50
2018-08-17T18:10:26.871Z,32.40
2018-08-17T18:13:03.012Z,32.30
2018-08-17T18:15:39.440Z,32.30
2018-08-17T18:18:14.166Z,32.30
2018-08-17T18:20:50.803Z,32.30
2018-08-17T18:26:09.789Z,31.60
2018-08-17T18:28:44.531Z,30.00
2018-08-17T18:31:19.331Z,29.80
2018-08-17T18:33:55.700Z,29.60
2018-08-17T18:36:30.377Z,29.40
2018-08-17T18:39:10.627Z,29.00
2018-08-17T18:41:46.355Z,29.30
2018-08-17T18:44:20.964Z,29.10
2018-08-17T18:46:55.364Z,28.90
2018-08-17T18:49:44.817Z,28.50
2018-08-17T18:52:20.640Z,28.60
2018-08-17T18:54:56.500Z,28.60
2018-08-17T18:57:30.781Z,28.80
2018-08-17T19:00:17.458Z,28.80
2018-08-17T19:02:52.342Z,28.60
2018-08-17T19:05:26.843Z,28.60
2018-08-17T19:08:02.516Z,28.90
2018-08-17T19:10:38.654Z,28.90
2018-08-17T19:13:14.953Z,28.70
2018-08-17T19:15:54.060Z,28.60
2018-08-17T19:18:31.383Z,28.80
2018-08-17T19:21:12.607Z,29.10
2018-08-17T19:23:47.050Z,29.10
2018-08-17T19:26:24.054Z,28.90
2018-08-17T19:28:58.488Z,28.70
2018-08-17T19:31:33.491Z,28.70
2018-08-17T19:34:09.508Z,28.90
2018-08-17T19:36:44.519Z,28.90
2018-08-17T19:39:27.203Z,28.90
2018-08-17T19:42:03.804Z,28.80
2018-08-17T19:44:39.009Z,29.00
2018-08-17T19:47:13.515Z,29.10
2018-08-17T19:52:30.930Z,29.20
2018-08-17T19:55:07.959Z,29.20
2018-08-17T19:57:42.530Z,29.00
2018-08-17T20:00:20.999Z,28.40
2018-08-17T20:02:55.928Z,28.10
2018-08-17T20:05:31.388Z,28.10
2018-08-17T20:08:07.775Z,27.90
2018-08-17T20:10:42.194Z,28.20
2018-08-17T20:13:18.583Z,28.40
2018-08-17T20:15:54.295Z,28.50
2018-08-17T20:18:28.736Z,28.70
2018-08-17T20:21:04.573Z,29.10
2018-08-17T20:23:38.868Z,29.10
2018-08-17T20:26:15.045Z,29.10
2018-08-17T20:28:49.188Z,29.10
2018-08-17T20:31:23.658Z,29.10
2018-08-17T20:33:59.072Z,29.30
2018-08-17T20:36:34.987Z,29.10
2018-08-17T20:39:11.226Z,29.40
2018-08-17T20:41:45.667Z,29.50
2018-08-17T20:44:20.257Z,29.40
2018-08-17T20:46:55.548Z,29.50
2018-08-17T20:49:31.088Z,29.50
2018-08-17T20:52:06.719Z,29.40
2018-08-17T20:54:42.463Z,29.40
2018-08-17T20:57:16.883Z,29.30
2018-08-17T20:59:51.391Z,29.30
2018-08-17T21:02:27.173Z,29.40
2018-08-17T21:05:01.743Z,29.40
2018-08-17T21:07:37.307Z,29.30
2018-08-17T21:10:11.818Z,29.30
2018-08-17T21:12:48.255Z,29.10
2018-08-17T21:15:24.133Z,29.20
2018-08-17T21:17:58.463Z,29.20
2018-08-17T21:20:34.744Z,29.30
2018-08-17T21:23:10.576Z,29.30
2018-08-17T21:25:48.752Z,29.30
2018-08-17T21:28:23.093Z,29.20
2018-08-17T21:30:57.514Z,29.30
2018-08-17T21:33:33.110Z,29.30
2018-08-17T21:36:07.869Z,29.30
2018-08-17T21:38:42.500Z,29.10
2018-08-17T21:41:17.352Z,29.20
2018-08-17T21:43:51.734Z,29.30
2018-08-17T21:46:27.034Z,29.30
2018-08-17T21:49:02.849Z,29.30
2018-08-17T21:51:38.494Z,29.30
2018-08-17T21:54:14.792Z,29.30
2018-08-17T21:56:50.458Z,29.30
2018-08-17T21:59:27.610Z,29.20
2018-08-17T22:02:03.976Z,29.20
2018-08-17T22:04:38.305Z,29.20
2018-08-17T22:10:01.489Z,29.20
2018-08-17T22:12:37.596Z,29.10
2018-08-17T22:15:14.097Z,29.20
2018-08-17T22:17:48.488Z,29.20
2018-08-17T22:20:24.271Z,29.20
2018-08-17T22:22:59.103Z,29.20
2018-08-17T22:25:41.064Z,29.20
2018-08-17T22:28:15.490Z,29.10
2018-08-17T22:30:51.126Z,29.10
2018-08-17T22:33:31.178Z,29.10
2018-08-17T22:36:09.611Z,29.00
2018-08-17T22:38:46.074Z,28.90
2018-08-17T22:41:20.625Z,28.90
2018-08-17T22:43:54.899Z,28.90
2018-08-17T22:46:29.312Z,28.80
2018-08-17T22:49:05.915Z,28.80
2018-08-17T22:51:53.766Z,28.70
2018-08-17T22:54:29.947Z,28.60
2018-08-17T22:57:05.982Z,28.50
2018-08-17T22:59:40.670Z,28.40
2018-08-17T23:02:16.195Z,28.40
2018-08-17T23:04:50.547Z,28.10
2018-08-17T23:07:30.688Z,28.10
2018-08-17T23:10:06.294Z,28.00
2018-08-17T23:12:42.578Z,28.10
2018-08-17T23:15:18.740Z,28.10
2018-08-17T23:17:55.535Z,28.20
2018-08-17T23:20:36.122Z,28.30
2018-08-17T23:23:10.607Z,28.30
2018-08-17T23:25:46.308Z,28.30
2018-08-17T23:28:22.051Z,28.30
2018-08-17T23:30:56.383Z,28.30
2018-08-17T23:33:31.980Z,28.10
2018-08-17T23:36:06.645Z,27.90
2018-08-17T23:38:41.183Z,27.70
2018-08-17T23:41:15.819Z,27.70
2018-08-17T23:43:50.408Z,27.40
2018-08-17T23:46:24.738Z,27.40
2018-08-17T23:49:00.680Z,27.40
2018-08-17T23:51:36.402Z,27.20
2018-08-17T23:54:15.455Z,27.20
2018-08-17T23:56:51.592Z,27.20
2018-08-17T23:59:27.408Z,27.20
